sensor_id;sensor_type;location;lat;lon;timestamp;P1;durP1;ratioP1;P2;durP2;ratioP2
27039;SDS011;14589;51.578;7.306;2023-05-10T00:01:33;2.78;;;1.45;;
27039;SDS011;14589;51.578;7.306;2023-05-10T00:04:03;2.40;;;1.00;;
27039;SDS011;14589;51.578;7.306;2023-05-10T00:06:33;2.78;;;0.70;;
27039;SDS011;14589;51.578;7.306;2023-05-10T00:09:04;3.50;;;1.20;;
27039;SDS011;14589;51.578;7.306;2023-05-10T00:11:35;3.13;;;1.45;;
27039;SDS011;14589;51.578;7.306;2023-05-10T00:14:05;4.30;;;1.88;;
27039;SDS011;14589;51.578;7.306;2023-05-10T00:16:35;4.78;;;1.90;;
27039;SDS011;14589;51.578;7.306;2023-05-10T00:19:06;8.63;;;3.60;;
27039;SDS011;14589;51.578;7.306;2023-05-10T00:21:36;3.72;;;1.60;;
27039;SDS011;14589;51.578;7.306;2023-05-10T00:24:10;3.72;;;2.15;;
27039;SDS011;14589;51.578;7.306;2023-05-10T00:26:46;4.75;;;2.45;;
27039;SDS011;14589;51.578;7.306;2023-05-10T00:29:17;5.00;;;2.53;;
27039;SDS011;14589;51.578;7.306;2023-05-10T00:31:48;5.22;;;1.92;;
27039;SDS011;14589;51.578;7.306;2023-05-10T00:34:18;3.85;;;2.17;;
27039;SDS011;14589;51.578;7.306;2023-05-10T00:36:48;4.53;;;1.92;;
27039;SDS011;14589;51.578;7.306;2023-05-10T00:39:19;4.00;;;2.35;;
27039;SDS011;14589;51.578;7.306;2023-05-10T00:41:49;4.63;;;2.67;;
27039;SDS011;14589;51.578;7.306;2023-05-10T00:44:21;4.80;;;1.90;;
27039;SDS011;14589;51.578;7.306;2023-05-10T00:46:51;4.90;;;1.67;;
27039;SDS011;14589;51.578;7.306;2023-05-10T00:49:23;5.70;;;1.92;;
27039;SDS011;14589;51.578;7.306;2023-05-10T00:51:53;4.07;;;2.15;;
27039;SDS011;14589;51.578;7.306;2023-05-10T00:54:24;4.38;;;2.00;;
27039;SDS011;14589;51.578;7.306;2023-05-10T00:56:54;3.90;;;1.80;;
27039;SDS011;14589;51.578;7.306;2023-05-10T00:59:26;3.25;;;1.38;;
27039;SDS011;14589;51.578;7.306;2023-05-10T01:01:58;3.33;;;1.73;;
27039;SDS011;14589;51.578;7.306;2023-05-10T01:04:29;3.47;;;1.30;;
27039;SDS011;14589;51.578;7.306;2023-05-10T01:09:31;4.65;;;2.35;;
27039;SDS011;14589;51.578;7.306;2023-05-10T01:12:03;4.07;;;1.85;;
27039;SDS011;14589;51.578;7.306;2023-05-10T01:14:36;4.32;;;2.08;;
27039;SDS011;14589;51.578;7.306;2023-05-10T01:17:07;6.90;;;2.03;;
27039;SDS011;14589;51.578;7.306;2023-05-10T01:19:39;4.60;;;2.25;;
27039;SDS011;14589;51.578;7.306;2023-05-10T01:34:24;6.07;;;2.92;;
27039;SDS011;14589;51.578;7.306;2023-05-10T01:39:44;5.40;;;2.80;;
27039;SDS011;14589;51.578;7.306;2023-05-10T01:42:20;4.80;;;2.83;;
27039;SDS011;14589;51.578;7.306;2023-05-10T01:45:04;5.78;;;2.75;;
27039;SDS011;14589;51.578;7.306;2023-05-10T01:47:44;5.45;;;2.35;;
27039;SDS011;14589;51.578;7.306;2023-05-10T01:50:22;4.45;;;2.20;;
27039;SDS011;14589;51.578;7.306;2023-05-10T01:52:57;3.10;;;1.13;;
27039;SDS011;14589;51.578;7.306;2023-05-10T01:55:31;2.63;;;0.80;;
27039;SDS011;14589;51.578;7.306;2023-05-10T01:58:06;3.15;;;0.60;;
27039;SDS011;14589;51.578;7.306;2023-05-10T02:00:45;1.67;;;0.63;;
27039;SDS011;14589;51.578;7.306;2023-05-10T02:03:17;2.85;;;0.40;;
27039;SDS011;14589;51.578;7.306;2023-05-10T02:05:51;1.85;;;0.75;;
27039;SDS011;14589;51.578;7.306;2023-05-10T02:08:25;1.60;;;0.38;;
27039;SDS011;14589;51.578;7.306;2023-05-10T02:10:57;1.20;;;0.38;;
27039;SDS011;14589;51.578;7.306;2023-05-10T02:13:28;2.05;;;0.32;;
27039;SDS011;14589;51.578;7.306;2023-05-10T02:16:02;2.28;;;0.57;;
27039;SDS011;14589;51.578;7.306;2023-05-10T02:18:35;2.88;;;1.13;;
27039;SDS011;14589;51.578;7.306;2023-05-10T02:21:06;1.75;;;0.50;;
27039;SDS011;14589;51.578;7.306;2023-05-10T02:23:43;1.20;;;0.43;;
27039;SDS011;14589;51.578;7.306;2023-05-10T02:26:15;2.53;;;0.52;;
27039;SDS011;14589;51.578;7.306;2023-05-10T02:28:48;1.27;;;0.13;;
27039;SDS011;14589;51.578;7.306;2023-05-10T02:31:19;1.23;;;0.80;;
27039;SDS011;14589;51.578;7.306;2023-05-10T02:33:51;1.48;;;0.60;;
27039;SDS011;14589;51.578;7.306;2023-05-10T02:36:23;1.70;;;0.38;;
27039;SDS011;14589;51.578;7.306;2023-05-10T02:38:54;1.63;;;0.30;;
27039;SDS011;14589;51.578;7.306;2023-05-10T02:43:59;1.10;;;0.57;;
27039;SDS011;14589;51.578;7.306;2023-05-10T02:46:33;1.33;;;0.20;;
27039;SDS011;14589;51.578;7.306;2023-05-10T02:49:04;1.92;;;0.73;;
27039;SDS011;14589;51.578;7.306;2023-05-10T02:51:35;1.98;;;0.55;;
27039;SDS011;14589;51.578;7.306;2023-05-10T02:54:10;1.52;;;0.13;;
27039;SDS011;14589;51.578;7.306;2023-05-10T02:56:47;1.55;;;0.55;;
27039;SDS011;14589;51.578;7.306;2023-05-10T02:59:26;1.88;;;0.68;;
27039;SDS011;14589;51.578;7.306;2023-05-10T03:01:57;1.77;;;0.43;;
27039;SDS011;14589;51.578;7.306;2023-05-10T03:04:28;1.58;;;0.30;;
27039;SDS011;14589;51.578;7.306;2023-05-10T03:09:31;1.88;;;0.50;;
27039;SDS011;14589;51.578;7.306;2023-05-10T03:12:04;1.92;;;0.22;;
27039;SDS011;14589;51.578;7.306;2023-05-10T03:14:53;1.73;;;0.43;;
27039;SDS011;14589;51.578;7.306;2023-05-10T03:20:25;2.03;;;0.55;;
27039;SDS011;14589;51.578;7.306;2023-05-10T03:23:04;2.00;;;0.47;;
27039;SDS011;14589;51.578;7.306;2023-05-10T03:25:40;2.08;;;0.55;;
27039;SDS011;14589;51.578;7.306;2023-05-10T03:28:16;3.15;;;1.10;;
27039;SDS011;14589;51.578;7.306;2023-05-10T03:30:48;4.22;;;1.52;;
27039;SDS011;14589;51.578;7.306;2023-05-10T03:33:20;4.13;;;1.50;;
27039;SDS011;14589;51.578;7.306;2023-05-10T03:35:51;4.07;;;1.58;;
27039;SDS011;14589;51.578;7.306;2023-05-10T03:38:21;3.20;;;1.67;;
27039;SDS011;14589;51.578;7.306;2023-05-10T03:40:51;3.70;;;0.93;;
27039;SDS011;14589;51.578;7.306;2023-05-10T03:43:22;3.72;;;1.55;;
27039;SDS011;14589;51.578;7.306;2023-05-10T03:45:52;5.43;;;2.30;;
27039;SDS011;14589;51.578;7.306;2023-05-10T03:48:23;6.20;;;2.58;;
27039;SDS011;14589;51.578;7.306;2023-05-10T03:50:53;4.20;;;1.95;;
27039;SDS011;14589;51.578;7.306;2023-05-10T03:53:24;5.03;;;2.30;;
27039;SDS011;14589;51.578;7.306;2023-05-10T03:55:55;6.03;;;2.45;;
27039;SDS011;14589;51.578;7.306;2023-05-10T03:58:25;4.50;;;2.00;;
27039;SDS011;14589;51.578;7.306;2023-05-10T04:00:56;7.72;;;4.25;;
27039;SDS011;14589;51.578;7.306;2023-05-10T04:03:26;6.75;;;2.63;;
27039;SDS011;14589;51.578;7.306;2023-05-10T04:06:00;8.73;;;3.70;;
27039;SDS011;14589;51.578;7.306;2023-05-10T04:08:31;7.55;;;3.03;;
27039;SDS011;14589;51.578;7.306;2023-05-10T04:11:05;6.78;;;3.20;;
27039;SDS011;14589;51.578;7.306;2023-05-10T04:13:37;9.52;;;4.32;;
27039;SDS011;14589;51.578;7.306;2023-05-10T04:16:08;6.90;;;3.28;;
27039;SDS011;14589;51.578;7.306;2023-05-10T04:18:39;8.88;;;3.88;;
27039;SDS011;14589;51.578;7.306;2023-05-10T04:21:13;11.02;;;5.15;;
27039;SDS011;14589;51.578;7.306;2023-05-10T04:23:44;7.45;;;3.00;;
27039;SDS011;14589;51.578;7.306;2023-05-10T04:26:14;9.88;;;5.15;;
27039;SDS011;14589;51.578;7.306;2023-05-10T04:28:47;12.13;;;6.85;;
27039;SDS011;14589;51.578;7.306;2023-05-10T04:31:18;8.40;;;4.75;;
27039;SDS011;14589;51.578;7.306;2023-05-10T04:33:48;9.63;;;4.22;;
27039;SDS011;14589;51.578;7.306;2023-05-10T04:36:19;12.98;;;6.05;;
27039;SDS011;14589;51.578;7.306;2023-05-10T04:38:50;10.52;;;4.25;;
27039;SDS011;14589;51.578;7.306;2023-05-10T04:41:20;12.70;;;5.80;;
27039;SDS011;14589;51.578;7.306;2023-05-10T04:43:51;13.15;;;5.22;;
27039;SDS011;14589;51.578;7.306;2023-05-10T04:46:21;13.23;;;6.20;;
27039;SDS011;14589;51.578;7.306;2023-05-10T04:48:51;16.95;;;7.07;;
27039;SDS011;14589;51.578;7.306;2023-05-10T04:51:22;14.52;;;7.45;;
27039;SDS011;14589;51.578;7.306;2023-05-10T04:53:52;14.18;;;6.90;;
27039;SDS011;14589;51.578;7.306;2023-05-10T04:56:23;11.43;;;5.60;;
27039;SDS011;14589;51.578;7.306;2023-05-10T04:58:53;12.48;;;4.68;;
27039;SDS011;14589;51.578;7.306;2023-05-10T05:01:23;13.93;;;5.72;;
27039;SDS011;14589;51.578;7.306;2023-05-10T05:03:54;13.48;;;5.63;;
27039;SDS011;14589;51.578;7.306;2023-05-10T05:06:24;17.00;;;7.63;;
27039;SDS011;14589;51.578;7.306;2023-05-10T05:08:55;16.98;;;6.85;;
27039;SDS011;14589;51.578;7.306;2023-05-10T05:11:26;15.80;;;6.68;;
27039;SDS011;14589;51.578;7.306;2023-05-10T05:13:56;15.77;;;6.82;;
27039;SDS011;14589;51.578;7.306;2023-05-10T05:16:30;15.38;;;7.15;;
27039;SDS011;14589;51.578;7.306;2023-05-10T05:19:01;17.15;;;7.57;;
27039;SDS011;14589;51.578;7.306;2023-05-10T05:21:31;19.73;;;8.93;;
27039;SDS011;14589;51.578;7.306;2023-05-10T05:24:02;19.00;;;8.43;;
27039;SDS011;14589;51.578;7.306;2023-05-10T05:26:33;14.88;;;6.97;;
27039;SDS011;14589;51.578;7.306;2023-05-10T05:29:04;22.08;;;8.50;;
27039;SDS011;14589;51.578;7.306;2023-05-10T05:31:34;17.67;;;8.30;;
27039;SDS011;14589;51.578;7.306;2023-05-10T05:34:05;18.48;;;9.20;;
27039;SDS011;14589;51.578;7.306;2023-05-10T05:36:38;17.75;;;7.85;;
27039;SDS011;14589;51.578;7.306;2023-05-10T05:39:09;24.90;;;12.07;;
27039;SDS011;14589;51.578;7.306;2023-05-10T05:41:39;20.88;;;9.60;;
27039;SDS011;14589;51.578;7.306;2023-05-10T05:44:10;19.33;;;9.75;;
27039;SDS011;14589;51.578;7.306;2023-05-10T05:46:40;21.52;;;9.07;;
27039;SDS011;14589;51.578;7.306;2023-05-10T05:49:10;20.85;;;9.88;;
27039;SDS011;14589;51.578;7.306;2023-05-10T05:51:41;31.75;;;14.50;;
27039;SDS011;14589;51.578;7.306;2023-05-10T05:54:11;34.88;;;15.02;;
27039;SDS011;14589;51.578;7.306;2023-05-10T05:56:41;25.02;;;12.25;;
27039;SDS011;14589;51.578;7.306;2023-05-10T05:59:12;25.92;;;12.32;;
27039;SDS011;14589;51.578;7.306;2023-05-10T06:01:43;31.58;;;14.57;;
27039;SDS011;14589;51.578;7.306;2023-05-10T06:04:13;26.60;;;12.57;;
27039;SDS011;14589;51.578;7.306;2023-05-10T06:06:44;32.38;;;13.88;;
27039;SDS011;14589;51.578;7.306;2023-05-10T06:09:14;28.83;;;12.60;;
27039;SDS011;14589;51.578;7.306;2023-05-10T06:11:45;35.25;;;16.23;;
27039;SDS011;14589;51.578;7.306;2023-05-10T06:14:15;32.67;;;16.50;;
27039;SDS011;14589;51.578;7.306;2023-05-10T06:16:45;27.05;;;13.63;;
27039;SDS011;14589;51.578;7.306;2023-05-10T06:19:16;27.55;;;11.77;;
27039;SDS011;14589;51.578;7.306;2023-05-10T06:21:46;27.25;;;13.75;;
27039;SDS011;14589;51.578;7.306;2023-05-10T06:24:17;23.30;;;11.32;;
27039;SDS011;14589;51.578;7.306;2023-05-10T06:26:47;30.95;;;14.13;;
27039;SDS011;14589;51.578;7.306;2023-05-10T06:29:19;28.20;;;13.43;;
27039;SDS011;14589;51.578;7.306;2023-05-10T06:31:50;29.45;;;13.27;;
27039;SDS011;14589;51.578;7.306;2023-05-10T06:34:20;35.17;;;13.73;;
27039;SDS011;14589;51.578;7.306;2023-05-10T06:36:51;31.08;;;14.02;;
27039;SDS011;14589;51.578;7.306;2023-05-10T06:39:21;32.30;;;14.32;;
27039;SDS011;14589;51.578;7.306;2023-05-10T06:41:52;31.08;;;15.88;;
27039;SDS011;14589;51.578;7.306;2023-05-10T06:44:23;34.58;;;14.80;;
27039;SDS011;14589;51.578;7.306;2023-05-10T06:46:53;30.35;;;12.60;;
27039;SDS011;14589;51.578;7.306;2023-05-10T06:49:25;29.63;;;12.45;;
27039;SDS011;14589;51.578;7.306;2023-05-10T06:51:56;26.60;;;11.90;;
27039;SDS011;14589;51.578;7.306;2023-05-10T06:54:26;28.30;;;12.27;;
27039;SDS011;14589;51.578;7.306;2023-05-10T06:56:57;25.05;;;11.98;;
27039;SDS011;14589;51.578;7.306;2023-05-10T06:59:27;32.83;;;14.65;;
27039;SDS011;14589;51.578;7.306;2023-05-10T07:01:58;32.97;;;15.75;;
27039;SDS011;14589;51.578;7.306;2023-05-10T07:04:28;28.65;;;14.02;;
27039;SDS011;14589;51.578;7.306;2023-05-10T07:06:58;23.48;;;13.77;;
27039;SDS011;14589;51.578;7.306;2023-05-10T07:09:29;24.20;;;11.30;;
27039;SDS011;14589;51.578;7.306;2023-05-10T07:12:00;26.20;;;13.15;;
27039;SDS011;14589;51.578;7.306;2023-05-10T07:14:31;28.65;;;14.23;;
27039;SDS011;14589;51.578;7.306;2023-05-10T07:17:02;34.63;;;17.50;;
27039;SDS011;14589;51.578;7.306;2023-05-10T07:19:32;35.10;;;17.10;;
27039;SDS011;14589;51.578;7.306;2023-05-10T07:22:03;34.58;;;15.07;;
27039;SDS011;14589;51.578;7.306;2023-05-10T07:24:33;32.22;;;15.38;;
27039;SDS011;14589;51.578;7.306;2023-05-10T07:27:04;32.55;;;16.25;;
27039;SDS011;14589;51.578;7.306;2023-05-10T07:29:35;34.45;;;15.95;;
27039;SDS011;14589;51.578;7.306;2023-05-10T07:32:06;28.73;;;14.90;;
27039;SDS011;14589;51.578;7.306;2023-05-10T07:34:36;23.73;;;14.85;;
27039;SDS011;14589;51.578;7.306;2023-05-10T07:37:07;22.98;;;12.93;;
27039;SDS011;14589;51.578;7.306;2023-05-10T07:39:37;28.55;;;14.70;;
27039;SDS011;14589;51.578;7.306;2023-05-10T07:42:08;25.75;;;14.82;;
27039;SDS011;14589;51.578;7.306;2023-05-10T07:44:38;28.08;;;12.90;;
27039;SDS011;14589;51.578;7.306;2023-05-10T07:47:08;28.13;;;13.90;;
27039;SDS011;14589;51.578;7.306;2023-05-10T07:49:39;23.05;;;13.38;;
27039;SDS011;14589;51.578;7.306;2023-05-10T07:52:10;27.02;;;13.43;;
27039;SDS011;14589;51.578;7.306;2023-05-10T07:54:41;31.92;;;16.23;;
27039;SDS011;14589;51.578;7.306;2023-05-10T07:57:11;25.00;;;12.93;;
27039;SDS011;14589;51.578;7.306;2023-05-10T07:59:44;31.40;;;16.40;;
27039;SDS011;14589;51.578;7.306;2023-05-10T08:02:15;29.10;;;14.73;;
27039;SDS011;14589;51.578;7.306;2023-05-10T08:04:45;33.55;;;17.17;;
27039;SDS011;14589;51.578;7.306;2023-05-10T08:07:16;37.55;;;17.23;;
27039;SDS011;14589;51.578;7.306;2023-05-10T08:09:46;36.42;;;19.08;;
27039;SDS011;14589;51.578;7.306;2023-05-10T08:12:16;44.78;;;21.75;;
27039;SDS011;14589;51.578;7.306;2023-05-10T08:14:47;34.15;;;17.67;;
27039;SDS011;14589;51.578;7.306;2023-05-10T08:17:17;28.25;;;15.85;;
27039;SDS011;14589;51.578;7.306;2023-05-10T08:19:47;32.75;;;16.08;;
27039;SDS011;14589;51.578;7.306;2023-05-10T08:22:18;35.10;;;17.20;;
27039;SDS011;14589;51.578;7.306;2023-05-10T08:24:48;36.95;;;18.38;;
27039;SDS011;14589;51.578;7.306;2023-05-10T08:27:18;34.63;;;18.13;;
27039;SDS011;14589;51.578;7.306;2023-05-10T08:29:49;31.38;;;15.20;;
27039;SDS011;14589;51.578;7.306;2023-05-10T08:32:19;26.95;;;15.35;;
27039;SDS011;14589;51.578;7.306;2023-05-10T08:34:50;32.58;;;16.70;;
27039;SDS011;14589;51.578;7.306;2023-05-10T08:37:20;27.52;;;14.45;;
27039;SDS011;14589;51.578;7.306;2023-05-10T08:39:50;31.15;;;15.43;;
27039;SDS011;14589;51.578;7.306;2023-05-10T08:42:21;25.35;;;12.63;;
27039;SDS011;14589;51.578;7.306;2023-05-10T08:44:55;26.38;;;13.88;;
27039;SDS011;14589;51.578;7.306;2023-05-10T08:47:27;24.08;;;12.23;;
27039;SDS011;14589;51.578;7.306;2023-05-10T08:49:59;26.40;;;13.40;;
27039;SDS011;14589;51.578;7.306;2023-05-10T08:52:30;23.80;;;13.50;;
27039;SDS011;14589;51.578;7.306;2023-05-10T08:55:02;28.55;;;13.25;;
27039;SDS011;14589;51.578;7.306;2023-05-10T08:57:33;31.67;;;14.20;;
27039;SDS011;14589;51.578;7.306;2023-05-10T09:00:04;27.88;;;11.65;;
27039;SDS011;14589;51.578;7.306;2023-05-10T09:02:36;17.58;;;9.23;;
27039;SDS011;14589;51.578;7.306;2023-05-10T09:05:07;20.83;;;10.25;;
27039;SDS011;14589;51.578;7.306;2023-05-10T09:07:38;19.77;;;9.48;;
27039;SDS011;14589;51.578;7.306;2023-05-10T09:10:08;18.02;;;9.80;;
27039;SDS011;14589;51.578;7.306;2023-05-10T09:12:40;20.27;;;9.05;;
27039;SDS011;14589;51.578;7.306;2023-05-10T09:15:11;19.98;;;10.18;;
27039;SDS011;14589;51.578;7.306;2023-05-10T09:17:45;20.75;;;10.10;;
27039;SDS011;14589;51.578;7.306;2023-05-10T09:20:16;18.17;;;8.68;;
27039;SDS011;14589;51.578;7.306;2023-05-10T09:22:49;22.33;;;9.07;;
27039;SDS011;14589;51.578;7.306;2023-05-10T09:25:20;17.17;;;8.88;;
27039;SDS011;14589;51.578;7.306;2023-05-10T09:27:52;16.98;;;7.78;;
27039;SDS011;14589;51.578;7.306;2023-05-10T09:30:26;15.43;;;5.55;;
27039;SDS011;14589;51.578;7.306;2023-05-10T09:32:59;11.60;;;5.82;;
27039;SDS011;14589;51.578;7.306;2023-05-10T09:35:30;12.70;;;6.78;;
27039;SDS011;14589;51.578;7.306;2023-05-10T09:38:04;13.38;;;6.25;;
27039;SDS011;14589;51.578;7.306;2023-05-10T09:45:38;16.08;;;7.90;;
27039;SDS011;14589;51.578;7.306;2023-05-10T09:48:11;13.63;;;6.47;;
27039;SDS011;14589;51.578;7.306;2023-05-10T09:50:41;16.52;;;6.07;;
27039;SDS011;14589;51.578;7.306;2023-05-10T09:53:14;13.48;;;5.40;;
27039;SDS011;14589;51.578;7.306;2023-05-10T09:55:45;11.32;;;6.05;;
27039;SDS011;14589;51.578;7.306;2023-05-10T10:00:46;11.85;;;5.53;;
27039;SDS011;14589;51.578;7.306;2023-05-10T10:03:18;8.43;;;4.63;;
27039;SDS011;14589;51.578;7.306;2023-05-10T10:05:50;9.45;;;4.65;;
27039;SDS011;14589;51.578;7.306;2023-05-10T10:08:21;9.63;;;5.30;;
27039;SDS011;14589;51.578;7.306;2023-05-10T10:10:51;10.48;;;5.30;;
27039;SDS011;14589;51.578;7.306;2023-05-10T10:13:22;12.23;;;6.10;;
27039;SDS011;14589;51.578;7.306;2023-05-10T10:15:53;15.63;;;8.73;;
27039;SDS011;14589;51.578;7.306;2023-05-10T10:20:57;11.63;;;5.78;;
27039;SDS011;14589;51.578;7.306;2023-05-10T10:23:28;10.93;;;5.25;;
27039;SDS011;14589;51.578;7.306;2023-05-10T10:36:01;22.73;;;11.95;;
27039;SDS011;14589;51.578;7.306;2023-05-10T10:38:37;20.67;;;11.15;;
27039;SDS011;14589;51.578;7.306;2023-05-10T10:41:30;18.02;;;9.02;;
27039;SDS011;14589;51.578;7.306;2023-05-10T10:52:14;20.15;;;10.45;;
27039;SDS011;14589;51.578;7.306;2023-05-10T10:55:09;15.80;;;8.57;;
27039;SDS011;14589;51.578;7.306;2023-05-10T10:57:55;20.02;;;9.63;;
27039;SDS011;14589;51.578;7.306;2023-05-10T11:00:37;19.13;;;8.38;;
27039;SDS011;14589;51.578;7.306;2023-05-10T11:03:11;17.50;;;7.43;;
27039;SDS011;14589;51.578;7.306;2023-05-10T11:05:49;14.63;;;7.13;;
27039;SDS011;14589;51.578;7.306;2023-05-10T11:08:28;14.23;;;6.80;;
27039;SDS011;14589;51.578;7.306;2023-05-10T11:19:03;14.43;;;7.43;;
27039;SDS011;14589;51.578;7.306;2023-05-10T11:21:44;13.50;;;6.40;;
27039;SDS011;14589;51.578;7.306;2023-05-10T11:24:22;12.43;;;6.68;;
27039;SDS011;14589;51.578;7.306;2023-05-10T11:26:57;18.92;;;7.78;;
27039;SDS011;14589;51.578;7.306;2023-05-10T11:29:28;15.40;;;8.20;;
27039;SDS011;14589;51.578;7.306;2023-05-10T11:31:58;13.07;;;7.90;;
27039;SDS011;14589;51.578;7.306;2023-05-10T11:34:30;18.90;;;10.07;;
27039;SDS011;14589;51.578;7.306;2023-05-10T11:37:03;17.60;;;9.52;;
27039;SDS011;14589;51.578;7.306;2023-05-10T11:39:33;15.43;;;7.20;;
27039;SDS011;14589;51.578;7.306;2023-05-10T11:42:04;17.58;;;10.63;;
27039;SDS011;14589;51.578;7.306;2023-05-10T11:44:34;18.02;;;9.82;;
27039;SDS011;14589;51.578;7.306;2023-05-10T11:47:05;26.15;;;13.73;;
27039;SDS011;14589;51.578;7.306;2023-05-10T11:49:38;24.83;;;13.45;;
27039;SDS011;14589;51.578;7.306;2023-05-10T11:52:08;21.65;;;10.95;;
27039;SDS011;14589;51.578;7.306;2023-05-10T11:54:50;22.83;;;12.80;;
27039;SDS011;14589;51.578;7.306;2023-05-10T11:57:25;20.77;;;11.27;;
27039;SDS011;14589;51.578;7.306;2023-05-10T11:59:57;23.63;;;13.48;;
27039;SDS011;14589;51.578;7.306;2023-05-10T12:02:28;19.00;;;10.10;;
27039;SDS011;14589;51.578;7.306;2023-05-10T12:05:00;18.23;;;11.82;;
27039;SDS011;14589;51.578;7.306;2023-05-10T12:07:31;21.50;;;12.48;;
27039;SDS011;14589;51.578;7.306;2023-05-10T12:10:11;28.13;;;12.30;;
27039;SDS011;14589;51.578;7.306;2023-05-10T12:15:20;20.02;;;10.50;;
27039;SDS011;14589;51.578;7.306;2023-05-10T12:17:52;13.20;;;8.82;;
27039;SDS011;14589;51.578;7.306;2023-05-10T12:20:23;15.90;;;8.57;;
27039;SDS011;14589;51.578;7.306;2023-05-10T12:22:55;13.57;;;7.97;;
27039;SDS011;14589;51.578;7.306;2023-05-10T12:25:30;14.05;;;7.63;;
27039;SDS011;14589;51.578;7.306;2023-05-10T12:28:06;13.90;;;8.57;;
27039;SDS011;14589;51.578;7.306;2023-05-10T12:30:38;13.15;;;6.72;;
27039;SDS011;14589;51.578;7.306;2023-05-10T12:33:13;11.18;;;6.53;;
27039;SDS011;14589;51.578;7.306;2023-05-10T12:35:47;10.55;;;6.75;;
27039;SDS011;14589;51.578;7.306;2023-05-10T12:38:29;14.40;;;9.00;;
27039;SDS011;14589;51.578;7.306;2023-05-10T12:41:03;11.05;;;6.93;;
27039;SDS011;14589;51.578;7.306;2023-05-10T12:43:35;14.35;;;7.15;;
27039;SDS011;14589;51.578;7.306;2023-05-10T12:46:10;17.23;;;8.15;;
27039;SDS011;14589;51.578;7.306;2023-05-10T12:48:44;12.48;;;6.03;;
27039;SDS011;14589;51.578;7.306;2023-05-10T12:53:49;7.20;;;3.90;;
27039;SDS011;14589;51.578;7.306;2023-05-10T12:56:19;8.65;;;4.82;;
27039;SDS011;14589;51.578;7.306;2023-05-10T12:58:50;9.55;;;4.47;;
27039;SDS011;14589;51.578;7.306;2023-05-10T13:01:20;7.55;;;4.88;;
27039;SDS011;14589;51.578;7.306;2023-05-10T13:03:51;8.77;;;4.38;;
27039;SDS011;14589;51.578;7.306;2023-05-10T13:06:21;10.65;;;6.88;;
27039;SDS011;14589;51.578;7.306;2023-05-10T13:08:52;13.45;;;8.55;;
27039;SDS011;14589;51.578;7.306;2023-05-10T13:11:22;16.10;;;10.15;;
27039;SDS011;14589;51.578;7.306;2023-05-10T13:13:52;12.25;;;7.50;;
27039;SDS011;14589;51.578;7.306;2023-05-10T13:16:23;14.80;;;7.68;;
27039;SDS011;14589;51.578;7.306;2023-05-10T13:18:53;14.30;;;9.82;;
27039;SDS011;14589;51.578;7.306;2023-05-10T13:21:24;18.10;;;10.13;;
27039;SDS011;14589;51.578;7.306;2023-05-10T13:23:55;15.45;;;8.00;;
27039;SDS011;14589;51.578;7.306;2023-05-10T13:26:25;16.25;;;9.60;;
27039;SDS011;14589;51.578;7.306;2023-05-10T13:28:56;8.45;;;5.47;;
27039;SDS011;14589;51.578;7.306;2023-05-10T13:31:26;11.95;;;6.25;;
27039;SDS011;14589;51.578;7.306;2023-05-10T13:33:57;8.82;;;5.20;;
27039;SDS011;14589;51.578;7.306;2023-05-10T13:36:27;9.70;;;5.30;;
27039;SDS011;14589;51.578;7.306;2023-05-10T13:38:58;10.27;;;4.47;;
27039;SDS011;14589;51.578;7.306;2023-05-10T13:41:28;10.02;;;5.10;;
27039;SDS011;14589;51.578;7.306;2023-05-10T13:43:58;7.25;;;4.20;;
27039;SDS011;14589;51.578;7.306;2023-05-10T13:46:29;9.00;;;5.30;;
27039;SDS011;14589;51.578;7.306;2023-05-10T13:49:00;6.10;;;3.63;;
27039;SDS011;14589;51.578;7.306;2023-05-10T13:51:31;5.90;;;4.65;;
27039;SDS011;14589;51.578;7.306;2023-05-10T13:54:04;5.43;;;2.97;;
27039;SDS011;14589;51.578;7.306;2023-05-10T13:56:35;6.13;;;3.47;;
27039;SDS011;14589;51.578;7.306;2023-05-10T13:59:05;6.47;;;3.80;;
27039;SDS011;14589;51.578;7.306;2023-05-10T14:01:36;5.18;;;3.03;;
27039;SDS011;14589;51.578;7.306;2023-05-10T14:04:06;4.85;;;1.75;;
27039;SDS011;14589;51.578;7.306;2023-05-10T14:06:40;6.97;;;2.63;;
27039;SDS011;14589;51.578;7.306;2023-05-10T14:09:10;3.88;;;1.80;;
27039;SDS011;14589;51.578;7.306;2023-05-10T14:11:40;4.40;;;1.80;;
27039;SDS011;14589;51.578;7.306;2023-05-10T14:14:13;5.55;;;2.97;;
27039;SDS011;14589;51.578;7.306;2023-05-10T14:16:43;4.60;;;1.80;;
27039;SDS011;14589;51.578;7.306;2023-05-10T14:19:14;3.85;;;1.60;;
27039;SDS011;14589;51.578;7.306;2023-05-10T14:21:45;3.63;;;2.47;;
27039;SDS011;14589;51.578;7.306;2023-05-10T14:24:15;4.03;;;1.73;;
27039;SDS011;14589;51.578;7.306;2023-05-10T14:26:46;3.30;;;1.73;;
27039;SDS011;14589;51.578;7.306;2023-05-10T14:29:16;5.15;;;1.48;;
27039;SDS011;14589;51.578;7.306;2023-05-10T14:31:47;6.22;;;2.20;;
27039;SDS011;14589;51.578;7.306;2023-05-10T14:34:17;4.07;;;1.38;;
27039;SDS011;14589;51.578;7.306;2023-05-10T14:36:48;8.63;;;2.63;;
27039;SDS011;14589;51.578;7.306;2023-05-10T14:39:18;4.93;;;1.55;;
27039;SDS011;14589;51.578;7.306;2023-05-10T14:41:49;8.23;;;2.33;;
27039;SDS011;14589;51.578;7.306;2023-05-10T14:44:21;5.85;;;3.10;;
27039;SDS011;14589;51.578;7.306;2023-05-10T14:46:51;3.65;;;1.38;;
27039;SDS011;14589;51.578;7.306;2023-05-10T14:49:22;3.63;;;1.75;;
27039;SDS011;14589;51.578;7.306;2023-05-10T14:51:54;5.78;;;2.33;;
27039;SDS011;14589;51.578;7.306;2023-05-10T14:54:25;4.70;;;2.17;;
27039;SDS011;14589;51.578;7.306;2023-05-10T14:56:55;6.32;;;2.28;;
27039;SDS011;14589;51.578;7.306;2023-05-10T14:59:26;3.35;;;1.90;;
27039;SDS011;14589;51.578;7.306;2023-05-10T15:01:56;5.53;;;2.55;;
27039;SDS011;14589;51.578;7.306;2023-05-10T15:04:27;4.40;;;1.27;;
27039;SDS011;14589;51.578;7.306;2023-05-10T15:06:57;6.13;;;2.50;;
27039;SDS011;14589;51.578;7.306;2023-05-10T15:11:59;3.65;;;1.48;;
27039;SDS011;14589;51.578;7.306;2023-05-10T15:14:30;2.78;;;1.40;;
27039;SDS011;14589;51.578;7.306;2023-05-10T15:17:01;7.03;;;2.75;;
27039;SDS011;14589;51.578;7.306;2023-05-10T15:19:32;5.00;;;2.00;;
27039;SDS011;14589;51.578;7.306;2023-05-10T15:22:04;3.35;;;1.67;;
27039;SDS011;14589;51.578;7.306;2023-05-10T15:24:35;6.10;;;2.25;;
27039;SDS011;14589;51.578;7.306;2023-05-10T15:27:05;3.65;;;2.33;;
27039;SDS011;14589;51.578;7.306;2023-05-10T15:29:36;4.10;;;2.08;;
27039;SDS011;14589;51.578;7.306;2023-05-10T15:32:06;4.35;;;2.05;;
27039;SDS011;14589;51.578;7.306;2023-05-10T15:34:37;5.30;;;1.58;;
27039;SDS011;14589;51.578;7.306;2023-05-10T15:37:07;7.32;;;3.47;;
27039;SDS011;14589;51.578;7.306;2023-05-10T15:39:37;6.95;;;3.40;;
27039;SDS011;14589;51.578;7.306;2023-05-10T15:42:08;4.88;;;2.28;;
27039;SDS011;14589;51.578;7.306;2023-05-10T15:44:38;7.30;;;4.57;;
27039;SDS011;14589;51.578;7.306;2023-05-10T15:47:09;8.73;;;5.30;;
27039;SDS011;14589;51.578;7.306;2023-05-10T15:49:39;7.00;;;3.75;;
27039;SDS011;14589;51.578;7.306;2023-05-10T15:52:09;7.00;;;3.38;;
27039;SDS011;14589;51.578;7.306;2023-05-10T15:54:40;4.88;;;2.97;;
27039;SDS011;14589;51.578;7.306;2023-05-10T15:57:10;7.53;;;3.70;;
27039;SDS011;14589;51.578;7.306;2023-05-10T15:59:41;5.63;;;3.70;;
27039;SDS011;14589;51.578;7.306;2023-05-10T16:02:11;8.13;;;4.45;;
27039;SDS011;14589;51.578;7.306;2023-05-10T16:04:42;8.52;;;4.28;;
27039;SDS011;14589;51.578;7.306;2023-05-10T16:07:13;7.53;;;5.05;;
27039;SDS011;14589;51.578;7.306;2023-05-10T16:09:44;10.98;;;4.80;;
27039;SDS011;14589;51.578;7.306;2023-05-10T16:12:14;10.50;;;5.25;;